Time;durP1;ratioP1;P1;durP2;ratioP2;P2;SDS_P1;SDS_P2;PMS_P1;PMS_P2;Temp;Humidity;BMP_temperature;BMP_pressure;BME280_temperature;BME280_humidity;BME280_pressure;Samples;Min_cycle;Max_cycle;Signal;HPM_P1;HPM_P2
2021/09/22 04:26:04;;;;;;;35.43;26.35;;;;;;;6.38;100.00;98183.73;1890634;76;22919;-60
2021/09/22 04:28:31;;;;;;;26.73;18.82;;;;;;;6.36;100.00;98186.38;1861487;77;21022;-60
2021/09/22 04:31:15;;;;;;;20.52;14.18;;;;;;;6.41;100.00;98192.52;1787575;80;21275;-60
2021/09/22 04:34:00;;;;;;;15.48;12.00;;;;;;;6.46;100.00;98184.56;1846690;77;20895;-60
2021/09/22 04:36:47;;;;;;;16.65;11.55;;;;;;;6.52;100.00;98188.06;1787401;80;21391;-58
2021/09/22 04:39:35;;;;;;;15.48;11.15;;;;;;;6.58;100.00;98185.16;1722560;80;20947;-62
2021/09/22 04:42:20;;;;;;;14.35;11.00;;;;;;;6.69;100.00;98181.47;1833109;77;20868;-60
2021/09/22 04:45:07;;;;;;;13.93;10.95;;;;;;;6.75;100.00;98176.97;1861719;77;21505;-61
2021/09/22 04:47:53;;;;;;;14.93;10.32;;;;;;;6.80;100.00;98175.14;1861412;77;20993;-60
2021/09/22 04:50:38;;;;;;;16.27;10.53;;;;;;;6.85;100.00;98175.12;1861686;77;20906;-62
2021/09/22 04:53:16;;;;;;;13.90;11.00;;;;;;;6.89;100.00;98173.56;1787589;80;21431;-62
2021/09/22 04:56:01;;;;;;;12.88;10.38;;;;;;;6.92;99.87;98173.58;1861524;77;21005;-58
2021/09/22 04:58:47;;;;;;;14.43;10.43;;;;;;;6.95;99.85;98167.70;1861231;77;20907;-59
2021/09/22 05:01:35;;;;;;;13.15;9.63;;;;;;;7.00;99.63;98171.72;1861207;77;21458;-61
2021/09/22 05:04:19;;;;;;;16.27;10.75;;;;;;;7.01;99.41;98175.19;1860390;77;20926;-61
2021/09/22 05:07:04;;;;;;;13.75;10.82;;;;;;;7.03;99.26;98178.38;1860971;77;20970;-61
2021/09/22 05:09:51;;;;;;;16.45;10.15;;;;;;;7.04;99.21;98176.00;1861608;77;21513;-60
2021/09/22 05:12:38;;;;;;;14.68;9.65;;;;;;;7.07;99.00;98174.13;1861114;77;20903;-61
2021/09/22 05:15:24;;;;;;;12.73;11.25;;;;;;;7.08;99.03;98176.55;1861532;77;21496;-61
2021/09/22 05:18:09;;;;;;;13.75;10.78;;;;;;;7.11;98.85;98179.22;1851145;77;21156;-61
2021/09/22 05:20:54;;;;;;;13.10;9.97;;;;;;;7.13;98.79;98180.55;1780473;80;20975;-62
2021/09/22 05:23:39;;;;;;;13.62;10.20;;;;;;;7.19;98.73;98169.36;1793849;80;21667;-61
2021/09/22 05:26:25;;;;;;;15.15;10.55;;;;;;;7.23;98.40;98173.12;1771575;81;26847;-62
2021/09/22 05:29:12;;;;;;;15.05;11.45;;;;;;;7.22;98.37;98175.50;1772342;80;21159;-62
2021/09/22 05:31:57;;;;;;;12.85;10.65;;;;;;;7.23;98.30;98169.13;1847923;77;20979;-62
2021/09/22 05:34:42;;;;;;;13.15;10.70;;;;;;;7.27;98.12;98170.98;1773634;81;21036;-61
2021/09/22 05:37:30;;;;;;;14.07;10.90;;;;;;;7.29;98.02;98170.72;1848045;77;21573;-61
2021/09/22 05:40:15;;;;;;;13.53;11.18;;;;;;;7.33;97.93;98166.45;1773251;81;21194;-60
2021/09/22 05:43:00;;;;;;;14.40;10.93;;;;;;;7.36;97.84;98168.59;1848246;77;20892;-60
2021/09/22 05:45:45;;;;;;;12.45;11.08;;;;;;;7.41;97.66;98171.27;1773710;80;21090;-62
2021/09/22 05:48:30;;;;;;;12.40;10.40;;;;;;;7.43;97.29;98165.94;1847947;77;20924;-59
2021/09/22 05:51:15;;;;;;;13.62;10.38;;;;;;;7.40;97.09;98168.32;1773765;80;20945;-61
2021/09/22 05:54:00;;;;;;;14.78;11.33;;;;;;;7.39;97.05;98172.88;1727110;83;20935;-61
2021/09/22 05:56:48;;;;;;;12.10;10.15;;;;;;;7.43;96.96;98165.13;1773838;80;21408;-60
2021/09/22 05:59:34;;;;;;;16.17;11.45;;;;;;;7.44;96.90;98169.41;1772117;81;21040;-60
2021/09/22 06:02:19;;;;;;;14.47;10.30;;;;;;;7.49;96.89;98166.72;1831353;77;20892;-61
2021/09/22 06:04:58;;;;;;;13.32;10.38;;;;;;;7.51;96.68;98171.28;1708880;79;20932;-62
2021/09/22 06:07:44;;;;;;;12.75;11.00;;;;;;;7.52;96.61;98172.87;1821877;77;20932;-62
2021/09/22 06:10:34;;;;;;;16.30;11.57;;;;;;;7.52;96.45;98164.87;1722680;81;20999;-62
2021/09/22 06:13:25;;;;;;;14.83;12.35;;;;;;;7.53;96.47;98177.14;1798408;78;20888;-59
2021/09/22 06:16:00;;;;;;;14.47;10.85;;;;;;;7.55;96.35;98171.81;1802963;77;21018;-61
2021/09/22 06:18:34;;;;;;;14.05;11.20;;;;;;;7.57;96.33;98172.88;1815235;77;21020;-60
2021/09/22 06:21:04;;;;;;;15.25;10.68;;;;;;;7.63;96.37;98173.13;1801470;78;21116;-60
2021/09/22 06:23:34;;;;;;;18.12;12.20;;;;;;;7.67;96.25;98176.88;1818401;77;20912;-61
2021/09/22 06:26:03;;;;;;;14.78;11.25;;;;;;;7.65;95.96;98182.21;1798123;77;21547;-61
2021/09/22 06:28:33;;;;;;;12.70;10.28;;;;;;;7.67;96.00;98184.08;1850934;77;20927;-60
2021/09/22 06:31:03;;;;;;;12.35;9.80;;;;;;;7.68;95.70;98186.46;1844422;77;21053;-62
2021/09/22 06:33:30;;;;;;;14.68;11.85;;;;;;;7.66;95.54;98183.27;1849626;77;21024;-60
2021/09/22 06:36:01;;;;;;;14.03;11.15;;;;;;;7.68;95.66;98180.35;1848169;77;21533;-61
2021/09/22 06:38:30;;;;;;;14.68;12.23;;;;;;;7.76;95.69;98182.47;1846571;77;20939;-61
2021/09/22 06:40:58;;;;;;;14.05;11.70;;;;;;;7.80;95.40;98181.66;1848129;77;20964;-63
2021/09/22 06:43:26;;;;;;;12.50;9.78;;;;;;;7.83;95.26;98179.00;1843823;77;20968;-60
2021/09/22 06:46:05;;;;;;;14.00;9.55;;;;;;;7.86;95.00;98183.28;1859133;77;21180;-63
2021/09/22 06:48:36;;;;;;;11.95;10.32;;;;;;;7.86;94.70;98173.14;1848939;77;21069;-62
2021/09/22 06:51:04;;;;;;;11.38;10.05;;;;;;;7.86;94.47;98171.28;1830458;77;21536;-62
2021/09/22 06:53:33;;;;;;;11.85;10.18;;;;;;;7.90;94.31;98167.00;1760056;80;20891;-61
2021/09/22 06:56:00;;;;;;;13.00;9.48;;;;;;;7.93;93.95;98170.47;1813442;78;20892;-62
2021/09/22 06:58:27;;;;;;;12.43;10.05;;;;;;;7.98;94.00;98170.47;1817125;79;21112;-61
2021/09/22 07:00:53;;;;;;;14.53;9.93;;;;;;;8.06;93.72;98171.77;1817874;78;21603;-63
2021/09/22 07:03:20;;;;;;;12.23;9.80;;;;;;;8.07;93.02;98170.19;1816520;79;21041;-62
2021/09/22 07:05:47;;;;;;;12.95;9.73;;;;;;;8.04;92.83;98164.05;1815269;79;21182;-63
2021/09/22 07:08:15;;;;;;;11.93;9.73;;;;;;;8.06;92.64;98169.10;1815764;79;21474;-62
2021/09/22 07:10:42;;;;;;;14.90;9.38;;;;;;;8.04;92.44;98167.24;1817002;78;21146;-62
2021/09/22 07:13:09;;;;;;;13.00;9.43;;;;;;;8.08;92.32;98164.29;1781851;80;20881;-65
2021/09/22 07:15:35;;;;;;;12.68;9.48;;;;;;;8.10;91.85;98177.63;1810530;78;21451;-63
2021/09/22 07:18:02;;;;;;;11.48;9.58;;;;;;;8.10;91.74;98170.95;1778704;80;20932;-62
2021/09/22 07:20:30;;;;;;;10.98;9.48;;;;;;;8.12;91.61;98166.17;1778468;80;20924;-65
2021/09/22 07:22:58;;;;;;;10.40;9.28;;;;;;;8.12;91.12;98167.52;1778422;80;21051;-62
2021/09/22 07:25:25;;;;;;;9.30;8.03;;;;;;;8.13;91.05;98170.42;1754885;80;20944;-65
2021/09/22 07:27:52;;;;;;;12.55;8.65;;;;;;;8.11;90.54;98171.23;1736646;82;21000;-65
2021/09/22 07:30:20;;;;;;;13.10;8.93;;;;;;;8.13;90.42;98161.62;1751627;81;20951;-61
2021/09/22 07:32:54;;;;;;;12.55;8.33;;;;;;;8.18;90.21;98166.42;1752789;82;20864;-65
2021/09/22 07:35:17;;;;;;;8.55;7.65;;;;;;;8.24;89.94;98162.66;1749603;81;21505;-63
2021/09/22 07:38:05;;;;;;;11.12;8.33;;;;;;;8.32;89.50;98172.02;1752213;82;20964;-62
2021/09/22 07:40:32;;;;;;;11.95;7.42;;;;;;;8.43;89.40;98181.58;1755473;81;21513;-64
2021/09/22 07:43:01;;;;;;;12.58;7.28;;;;;;;8.55;88.96;98182.64;1747922;81;21527;-64
2021/09/22 07:45:29;;;;;;;10.45;6.80;;;;;;;8.63;88.21;98176.72;1763753;81;20941;-63
2021/09/22 07:47:55;;;;;;;9.03;6.20;;;;;;;8.71;87.93;98172.97;1739260;81;21116;-62
2021/09/22 07:50:25;;;;;;;8.60;6.25;;;;;;;8.76;87.37;98173.48;1782318;79;21023;-64
2021/09/22 07:52:54;;;;;;;8.05;5.92;;;;;;;8.74;86.20;98174.27;1773541;79;20892;-63
2021/09/22 07:55:23;;;;;;;10.60;7.30;;;;;;;8.67;85.71;98177.77;1772603;79;21026;-63
2021/09/22 07:57:53;;;;;;;9.08;7.40;;;;;;;8.62;85.96;98181.82;1765213;81;21490;-69
2021/09/22 08:00:19;;;;;;;9.78;6.60;;;;;;;8.62;86.00;98173.81;1745971;79;21078;-62
2021/09/22 08:02:45;;;;;;;7.75;6.08;;;;;;;8.63;85.62;98179.39;1792116;79;21296;-63
2021/09/22 08:05:12;;;;;;;8.95;6.10;;;;;;;8.64;85.53;98179.67;1782116;79;21086;-64
2021/09/22 08:07:40;;;;;;;8.15;6.00;;;;;;;8.68;85.13;98176.18;1795472;79;20930;-63
2021/09/22 08:10:09;;;;;;;9.03;6.03;;;;;;;8.73;84.64;98178.03;1782101;79;21062;-63
2021/09/22 08:12:36;;;;;;;5.83;5.03;;;;;;;8.77;84.30;98175.06;1767140;79;22235;-63
2021/09/22 08:15:06;;;;;;;8.70;5.75;;;;;;;8.82;84.04;98177.72;1774467;79;20868;-62
2021/09/22 08:17:33;;;;;;;8.28;6.12;;;;;;;8.88;83.71;98167.26;1796309;79;21442;-60
2021/09/22 08:20:00;;;;;;;7.75;6.00;;;;;;;8.94;83.72;98166.98;1797982;79;20856;-61
2021/09/22 08:22:29;;;;;;;9.38;5.78;;;;;;;8.99;83.51;98164.82;1798109;79;20979;-65
2021/09/22 08:24:55;;;;;;;6.55;5.47;;;;;;;9.02;83.39;98165.58;1798076;79;21295;-61
2021/09/22 08:27:24;;;;;;;6.67;4.80;;;;;;;9.03;83.08;98165.86;1785950;79;20936;-61
2021/09/22 08:29:52;;;;;;;6.10;5.00;;;;;;;9.01;82.79;98168.02;1774929;79;21017;-60
2021/09/22 08:32:21;;;;;;;7.08;4.80;;;;;;;8.96;82.55;98165.36;1765120;81;21505;-63
2021/09/22 08:34:51;;;;;;;7.10;5.22;;;;;;;8.92;82.06;98163.80;1765018;81;21006;-62
2021/09/22 08:37:19;;;;;;;12.78;5.92;;;;;;;8.89;82.10;98163.00;1764994;81;21129;-60
2021/09/22 08:39:46;;;;;;;5.58;5.00;;;;;;;8.95;82.45;98163.75;1759740;81;21034;-60
2021/09/22 08:42:13;;;;;;;8.10;5.55;;;;;;;9.01;82.27;98164.00;1757213;81;21106;-62
2021/09/22 08:44:41;;;;;;;5.20;4.17;;;;;;;9.06;82.24;98162.64;1757811;81;21475;-62
2021/09/22 08:47:08;;;;;;;7.30;4.90;;;;;;;9.10;81.23;98158.34;1757621;79;21141;-62
2021/09/22 08:49:40;;;;;;;7.08;4.78;;;;;;;9.11;81.39;98158.61;1767395;81;21386;-61
2021/09/22 08:52:08;;;;;;;7.12;4.72;;;;;;;9.16;81.52;98159.89;1767419;81;21565;-65
2021/09/22 08:54:35;;;;;;;5.60;4.72;;;;;;;9.24;80.99;98160.66;1767859;81;20947;-63
2021/09/22 08:57:05;;;;;;;5.90;4.47;;;;;;;9.25;80.77;98160.93;1739720;81;21442;-63
2021/09/22 08:59:31;;;;;;;5.15;4.12;;;;;;;9.27;79.99;98152.09;1737273;82;21002;-62
2021/09/22 09:02:14;;;;;;;6.78;4.42;;;;;;;9.28;79.12;98147.55;1737684;82;21135;-62
2021/09/22 09:04:44;;;;;;;8.63;4.87;;;;;;;9.29;79.33;98144.59;1737720;82;21482;-60
2021/09/22 09:07:12;;;;;;;6.35;4.53;;;;;;;9.35;78.75;98152.05;1737650;82;21525;-65
2021/09/22 09:09:49;;;;;;;7.10;4.62;;;;;;;9.36;78.67;98149.08;1767652;79;21030;-63
2021/09/22 09:12:25;;;;;;;7.97;4.17;;;;;;;9.44;78.77;98147.70;1735429;79;21002;-63
2021/09/22 09:14:56;;;;;;;5.92;4.00;;;;;;;9.52;78.67;98147.89;1733444;82;21113;-61
2021/09/22 09:17:49;;;;;;;7.03;4.15;;;;;;;9.52;77.91;98149.22;1733367;82;20931;-61
2021/09/22 09:20:25;;;;;;;5.30;3.95;;;;;;;9.51;77.86;98151.66;1733081;82;21063;-63
2021/09/22 09:23:09;;;;;;;6.92;4.17;;;;;;;9.53;77.96;98150.03;1733377;80;21054;-61
2021/09/22 09:25:56;;;;;;;7.60;4.40;;;;;;;9.53;77.23;98156.72;1819558;76;21013;-61
2021/09/22 09:28:31;;;;;;;8.55;4.20;;;;;;;9.43;77.10;98149.56;1833928;77;21076;-61
2021/09/22 09:31:03;;;;;;;6.70;3.65;;;;;;;9.36;77.14;98157.10;1819274;77;21071;-60
2021/09/22 09:33:48;;;;;;;8.03;4.03;;;;;;;9.30;77.62;98156.09;1836342;77;20998;-63
2021/09/22 09:36:20;;;;;;;5.40;4.35;;;;;;;9.18;77.43;98164.98;1840967;77;21631;-62
2021/09/22 09:38:56;;;;;;;5.10;3.62;;;;;;;9.07;77.99;98164.22;1844763;77;21058;-64
2021/09/22 09:41:34;;;;;;;4.85;3.40;;;;;;;9.00;78.29;98163.73;1834083;77;21028;-63
2021/09/22 09:44:04;;;;;;;5.78;3.30;;;;;;;8.90;78.21;98167.81;1822499;78;21167;-62
2021/09/22 09:46:30;;;;;;;5.92;3.67;;;;;;;8.75;78.93;98166.53;1823368;78;21043;-65
2021/09/22 09:49:14;;;;;;;6.75;3.62;;;;;;;8.68;79.77;98172.17;1821863;77;21062;-64
2021/09/22 09:51:56;;;;;;;7.55;4.03;;;;;;;8.60;80.26;98171.92;1839179;77;22075;-62
2021/09/22 09:54:35;;;;;;;7.15;4.00;;;;;;;8.58;81.20;98166.06;1816316;78;21286;-60
2021/09/22 09:57:17;;;;;;;4.97;2.92;;;;;;;8.59;81.34;98165.00;1803589;78;21082;-62
2021/09/22 09:59:50;;;;;;;6.37;3.60;;;;;;;8.57;81.66;98168.48;1816756;78;21496;-62
2021/09/22 10:02:28;;;;;;;6.33;3.87;;;;;;;8.53;82.07;98162.07;1837266;78;21446;-60
2021/09/22 10:04:56;;;;;;;7.50;3.77;;;;;;;8.52;82.32;98167.97;1795518;80;21076;-62
2021/09/22 10:07:26;;;;;;;5.70;3.45;;;;;;;8.53;82.40;98173.55;1837869;78;21082;-61
2021/09/22 10:09:55;;;;;;;6.55;3.40;;;;;;;8.55;82.75;98171.97;1797030;79;20982;-63
2021/09/22 10:12:26;;;;;;;5.15;3.50;;;;;;;8.49;83.03;98167.70;1834289;78;21082;-61
2021/09/22 10:14:54;;;;;;;6.42;3.47;;;;;;;8.46;83.28;98174.91;1809645;78;20914;-63
2021/09/22 10:17:24;;;;;;;4.97;3.50;;;;;;;8.43;83.74;98168.80;1828824;78;20879;-63
2021/09/22 10:19:54;;;;;;;6.15;3.55;;;;;;;8.41;84.25;98172.28;1824308;78;20974;-60
2021/09/22 10:22:22;;;;;;;5.20;3.45;;;;;;;8.42;84.37;98173.86;1828170;78;21552;-62
2021/09/22 10:24:50;;;;;;;9.20;3.27;;;;;;;8.43;84.58;98171.47;1836813;78;21055;-61
2021/09/22 10:27:20;;;;;;;6.00;3.00;;;;;;;8.41;84.27;98174.95;1832455;78;20963;-60
2021/09/22 10:29:59;;;;;;;3.92;3.42;;;;;;;8.41;84.45;98170.38;1846890;77;20940;-63
2021/09/22 10:32:46;;;;;;;5.10;3.25;;;;;;;8.43;84.38;98167.47;1833907;77;21053;-62
2021/09/22 10:35:35;;;;;;;4.37;3.00;;;;;;;8.48;84.44;98166.12;1813782;79;20915;-66
2021/09/22 10:38:17;;;;;;;4.72;3.47;;;;;;;8.53;84.66;98166.08;1813140;79;21038;-63
2021/09/22 10:40:55;;;;;;;3.70;3.37;;;;;;;8.55;84.39;98170.63;1819770;77;21060;-64
2021/09/22 10:43:31;;;;;;;5.10;3.42;;;;;;;8.47;84.85;98162.64;1822016;77;21563;-61
2021/09/22 10:46:09;;;;;;;4.92;3.08;;;;;;;8.43;85.05;98168.80;1807699;78;21556;-61
2021/09/22 10:48:42;;;;;;;7.62;3.33;;;;;;;8.42;85.53;98164.52;1804478;78;21046;-62
2021/09/22 10:51:10;;;;;;;5.22;3.12;;;;;;;8.40;85.51;98169.33;1762741;81;20905;-63
2021/09/22 10:53:42;;;;;;;5.60;3.08;;;;;;;8.38;85.97;98170.14;1788309;79;21015;-61
2021/09/22 10:56:19;;;;;;;3.00;2.70;;;;;;;8.36;85.54;98168.28;1820345;77;21506;-61
2021/09/22 10:58:53;;;;;;;3.87;2.65;;;;;;;8.32;85.66;98165.88;1808605;77;21002;-61
2021/09/22 11:01:43;;;;;;;4.12;2.80;;;;;;;8.28;85.71;98170.97;1795829;79;21445;-60
2021/09/22 11:04:13;;;;;;;3.60;2.33;;;;;;;8.29;85.94;98176.55;1796687;79;20998;-62
2021/09/22 11:06:50;;;;;;;3.90;2.70;;;;;;;8.26;85.34;98174.45;1796283;79;21015;-61
2021/09/22 11:09:27;;;;;;;3.72;2.67;;;;;;;8.20;85.17;98176.28;1796930;79;21003;-62
2021/09/22 11:11:59;;;;;;;3.98;2.35;;;;;;;8.16;85.55;98170.42;1796445;79;21116;-63
2021/09/22 11:14:48;;;;;;;2.95;2.62;;;;;;;8.13;85.81;98172.29;1797004;79;20947;-61
2021/09/22 11:17:24;;;;;;;3.08;2.60;;;;;;;8.17;86.17;98171.48;1794767;79;21518;-63
2021/09/22 11:19:58;;;;;;;3.75;2.90;;;;;;;8.25;86.69;98171.47;1795834;79;21576;-64
2021/09/22 11:22:29;;;;;;;10.53;3.20;;;;;;;8.27;86.75;98164.58;1812455;77;20953;-63
2021/09/22 11:25:06;;;;;;;4.70;3.10;;;;;;;8.24;86.54;98166.66;1812272;77;21749;-62
2021/09/22 11:27:37;;;;;;;3.62;3.08;;;;;;;8.22;86.47;98166.13;1758523;81;20976;-62
2021/09/22 11:30:07;;;;;;;3.83;2.60;;;;;;;8.18;86.77;98163.75;1807312;79;21295;-67
2021/09/22 11:32:40;;;;;;;3.45;2.77;;;;;;;8.17;86.88;98164.03;1759256;81;21013;-62
2021/09/22 11:35:15;;;;;;;5.65;4.15;;;;;;;8.17;87.03;98162.14;1809088;79;21426;-61
2021/09/22 11:37:53;;;;;;;5.75;3.80;;;;;;;8.14;86.59;98164.03;1770598;80;21076;-62
2021/09/22 11:40:25;;;;;;;3.55;2.90;;;;;;;8.12;86.65;98158.70;1841385;78;20912;-63
2021/09/22 11:43:16;;;;;;;3.90;2.77;;;;;;;8.11;86.56;98163.23;1792466;80;20923;-62
2021/09/22 11:45:52;;;;;;;4.17;3.10;;;;;;;8.07;86.34;98160.84;1808152;79;21001;-62
2021/09/22 11:48:36;;;;;;;5.67;3.27;;;;;;;8.04;86.64;98161.38;1823780;78;21069;-60
2021/09/22 11:51:07;;;;;;;3.72;3.12;;;;;;;8.03;86.25;98159.77;1840560;78;21066;-60
2021/09/22 11:53:37;;;;;;;4.15;3.40;;;;;;;7.96;86.31;98160.58;1790702;80;21513;-60
2021/09/22 11:56:04;;;;;;;5.55;3.20;;;;;;;7.95;86.42;98161.66;1803163;78;20996;-59
2021/09/22 11:58:36;;;;;;;4.50;3.15;;;;;;;7.93;86.68;98163.80;1812763;78;21491;-60
2021/09/22 12:01:06;;;;;;;3.72;3.02;;;;;;;7.98;86.84;98163.80;1836473;78;20884;-62
2021/09/22 12:03:36;;;;;;;4.15;3.33;;;;;;;8.01;86.67;98166.44;1792983;80;21815;-62
2021/09/22 12:06:15;;;;;;;4.60;2.95;;;;;;;7.99;86.66;98164.58;1824834;78;20911;-61
2021/09/22 12:08:46;;;;;;;3.83;3.02;;;;;;;7.90;86.49;98165.66;1832665;78;20981;-61
2021/09/22 12:11:18;;;;;;;4.05;2.70;;;;;;;7.89;87.06;98169.39;1784424;80;20946;-61
2021/09/22 12:13:50;;;;;;;4.12;3.10;;;;;;;7.89;86.49;98164.61;1825777;78;20994;-60
2021/09/22 12:16:22;;;;;;;4.53;2.70;;;;;;;7.79;86.51;98172.08;1830291;77;21171;-60
2021/09/22 12:18:55;;;;;;;4.08;3.00;;;;;;;7.74;87.24;98175.27;1806000;78;21349;-66
2021/09/22 12:21:24;;;;;;;5.58;3.20;;;;;;;7.74;87.25;98173.41;1790700;80;21418;-58
2021/09/22 12:23:53;;;;;;;3.83;3.02;;;;;;;7.72;87.35;98180.08;1790737;80;21075;-61
2021/09/22 12:26:21;;;;;;;4.47;2.70;;;;;;;7.70;87.11;98170.99;1788151;79;21057;-60
2021/09/22 12:29:12;;;;;;;3.45;2.10;;;;;;;7.71;87.24;98177.94;1787568;80;21049;-62
2021/09/22 12:31:42;;;;;;;3.22;2.40;;;;;;;7.69;87.26;98173.94;1810116;78;21541;-61
2021/09/22 12:34:17;;;;;;;3.45;2.67;;;;;;;7.65;87.28;98174.21;1818586;78;20963;-59
2021/09/22 12:36:45;;;;;;;7.33;2.98;;;;;;;7.62;87.24;98175.55;1820487;78;21462;-58
2021/09/22 12:39:16;;;;;;;3.52;2.87;;;;;;;7.63;87.12;98171.80;1819475;78;21110;-60
2021/09/22 12:42:05;;;;;;;3.90;3.02;;;;;;;7.62;87.07;98168.08;1820215;78;21097;-59
2021/09/22 12:45:01;;;;;;;5.00;3.00;;;;;;;7.60;87.06;98171.02;1801288;78;20907;-60
2021/09/22 12:47:30;;;;;;;4.22;3.42;;;;;;;7.57;87.17;98169.68;1757124;81;21605;-60
2021/09/22 12:50:13;;;;;;;7.17;2.90;;;;;;;7.56;87.22;98171.26;1759372;79;21553;-60
2021/09/22 12:52:43;;;;;;;3.92;2.75;;;;;;;7.58;87.32;98165.16;1782057;80;20967;-60
2021/09/22 12:55:21;;;;;;;3.42;2.75;;;;;;;7.59;87.39;98173.41;1781959;80;21096;-61
2021/09/22 12:57:55;;;;;;;3.45;2.75;;;;;;;7.59;87.34;98174.73;1791375;80;21067;-61
2021/09/22 13:00:43;;;;;;;3.58;3.08;;;;;;;7.55;87.55;98176.34;1791547;80;21006;-59
2021/09/22 13:03:16;;;;;;;;;;;;;;;7.60;87.99;98167.02;1794334;80;22141;-60
2021/09/22 13:05:49;;;;;;;4.15;3.08;;;;;;;7.65;88.23;98171.02;1840160;78;20303;-58
2021/09/22 13:08:21;;;;;;;5.92;3.60;;;;;;;7.68;87.81;98172.36;1840247;78;21070;-59
2021/09/22 13:11:03;;;;;;;5.35;3.87;;;;;;;7.75;87.95;98169.66;1839767;78;21294;-61
2021/09/22 13:13:53;;;;;;;4.42;3.52;;;;;;;7.82;87.25;98168.09;1839266;78;21086;-59
2021/09/22 13:16:34;;;;;;;8.95;5.08;;;;;;;7.82;86.80;98164.86;1839831;78;21038;-59
2021/09/22 13:19:10;;;;;;;3.58;3.25;;;;;;;7.82;86.73;98168.86;1840037;78;21132;-58
2021/09/22 13:21:39;;;;;;;3.40;2.80;;;;;;;7.83;86.66;98167.80;1842493;78;21068;-59
2021/09/22 13:24:09;;;;;;;3.77;2.67;;;;;;;7.87;86.59;98168.86;1842008;78;21536;-60
2021/09/22 13:26:39;;;;;;;3.25;2.62;;;;;;;7.93;86.66;98165.14;1848431;77;20959;-60
2021/09/22 13:29:08;;;;;;;2.95;2.52;;;;;;;8.00;86.53;98160.33;1849671;77;20963;-60
2021/09/22 13:31:38;;;;;;;3.72;2.37;;;;;;;8.07;86.08;98156.84;1849914;77;21489;-60
2021/09/22 13:34:06;;;;;;;2.98;2.30;;;;;;;8.14;85.63;98157.36;1849901;77;21718;-60
2021/09/22 13:36:33;;;;;;;3.30;2.87;;;;;;;8.20;85.52;98151.46;1849925;77;20865;-61
2021/09/22 13:39:00;;;;;;;3.47;2.52;;;;;;;8.21;84.52;98153.08;1849962;77;20923;-61
2021/09/22 13:41:30;;;;;;;2.37;2.02;;;;;;;8.19;84.43;98150.69;1850057;77;21561;-59
2021/09/22 13:44:00;;;;;;;3.50;2.15;;;;;;;8.24;84.39;98149.87;1849917;77;21470;-60
2021/09/22 13:46:27;;;;;;;1.77;1.55;;;;;;;8.32;84.27;98152.53;1850177;77;21875;-59
2021/09/22 13:48:54;;;;;;;2.42;2.05;;;;;;;8.36;83.94;98148.27;1850146;77;20875;-59
2021/09/22 13:51:20;;;;;;;2.35;1.87;;;;;;;8.39;84.20;98149.84;1850087;77;20844;-60
2021/09/22 13:53:47;;;;;;;4.70;1.95;;;;;;;8.44;83.64;98157.03;1850275;77;21399;-59
2021/09/22 13:56:16;;;;;;;2.42;1.90;;;;;;;8.43;83.29;98158.13;1850151;77;20944;-60
2021/09/22 13:58:43;;;;;;;3.58;2.02;;;;;;;8.40;83.51;98155.98;1850096;77;21113;-61
2021/09/22 14:01:10;;;;;;;3.70;2.10;;;;;;;8.36;83.78;98160.28;1850080;77;21431;-60
